createdAt,value
2024-04-07T00:00:47.869Z,0
2024-04-07T00:01:56.874Z,0
2024-04-07T00:03:04.917Z,0
2024-04-07T00:04:13.924Z,0
2024-04-07T00:05:21.863Z,0
2024-04-07T00:06:30.870Z,0
2024-04-07T00:07:38.914Z,0
2024-04-07T00:08:47.919Z,0
2024-04-07T00:09:55.861Z,0
2024-04-07T00:11:04.868Z,0
2024-04-07T00:12:12.911Z,0
2024-04-07T00:13:21.916Z,0
2024-04-07T00:14:29.858Z,0
2024-04-07T00:15:38.863Z,0
2024-04-07T00:16:46.907Z,0
2024-04-07T00:17:55.913Z,0
2024-04-07T00:19:03.857Z,0
2024-04-07T00:20:12.863Z,0
2024-04-07T00:21:20.905Z,0
2024-04-07T00:22:29.912Z,0
2024-04-07T00:23:37.853Z,0
2024-04-07T00:24:46.859Z,0
2024-04-07T00:25:54.901Z,0
2024-04-07T00:27:03.907Z,0
2024-04-07T00:28:11.847Z,0
2024-04-07T00:29:20.854Z,0
2024-04-07T00:30:28.897Z,0
2024-04-07T00:31:37.902Z,0
2024-04-07T00:32:45.847Z,0
2024-04-07T00:33:54.854Z,0
2024-04-07T00:35:02.899Z,0
2024-04-07T00:36:11.904Z,0
2024-04-07T00:37:19.844Z,0
2024-04-07T00:38:28.851Z,0
2024-04-07T00:39:36.892Z,0
2024-04-07T00:40:45.897Z,0
2024-04-07T00:41:53.838Z,0
2024-04-07T00:43:02.843Z,0
2024-04-07T00:44:10.888Z,0
2024-04-07T00:45:19.895Z,0
2024-04-07T00:46:27.837Z,0
2024-04-07T00:47:36.841Z,0
2024-04-07T00:48:44.884Z,0
2024-04-07T00:49:53.890Z,0
2024-04-07T00:51:01.834Z,0
2024-04-07T00:52:10.838Z,0
2024-04-07T00:53:18.881Z,0
2024-04-07T00:54:27.887Z,0
2024-04-07T00:55:35.829Z,0
2024-04-07T00:56:44.834Z,0
2024-04-07T00:57:52.878Z,0
2024-04-07T00:59:01.882Z,0
2024-04-07T01:00:09.829Z,0
2024-04-07T01:01:18.835Z,0
2024-04-07T01:02:26.876Z,0
2024-04-07T01:03:35.880Z,0
2024-04-07T01:04:43.824Z,0
2024-04-07T01:05:52.830Z,0
2024-04-07T01:07:00.874Z,0
2024-04-07T01:08:09.879Z,0
2024-04-07T01:09:17.922Z,0
2024-04-07T01:10:26.828Z,0
2024-04-07T01:11:34.873Z,0
2024-04-07T01:12:43.878Z,0
2024-04-07T01:13:51.920Z,0
2024-04-07T01:15:00.826Z,0
2024-04-07T01:16:08.869Z,0
2024-04-07T01:17:17.873Z,0
2024-04-07T01:18:25.920Z,0
2024-04-07T01:19:34.925Z,0
2024-04-07T01:20:42.869Z,0
2024-04-07T01:21:51.874Z,0
2024-04-07T01:22:59.918Z,0
2024-04-07T01:24:08.925Z,0
2024-04-07T01:25:16.866Z,0
2024-04-07T01:26:25.870Z,0
2024-04-07T01:27:33.914Z,0
2024-04-07T01:28:42.920Z,0
2024-04-07T01:29:50.863Z,0
2024-04-07T01:30:59.867Z,0
2024-04-07T01:32:07.912Z,0
2024-04-07T01:33:16.917Z,0
2024-04-07T01:34:24.860Z,0
2024-04-07T01:35:33.865Z,0
2024-04-07T01:36:41.907Z,0
2024-04-07T01:37:50.913Z,0
2024-04-07T01:38:58.854Z,0
2024-04-07T01:40:07.861Z,0
2024-04-07T01:41:15.903Z,0
2024-04-07T01:42:24.908Z,0
2024-04-07T01:43:32.850Z,0
2024-04-07T01:44:41.855Z,0
2024-04-07T01:45:49.900Z,0
2024-04-07T01:46:58.905Z,0
2024-04-07T01:48:06.850Z,0
2024-04-07T01:49:15.857Z,0
2024-04-07T01:50:23.901Z,0
2024-04-07T01:51:32.906Z,0
2024-04-07T01:52:40.848Z,0
2024-04-07T01:53:49.855Z,0
2024-04-07T01:54:57.896Z,0
2024-04-07T01:56:06.901Z,0
2024-04-07T01:57:14.842Z,0
2024-04-07T01:58:23.847Z,0
2024-04-07T01:59:31.893Z,0
2024-04-07T02:00:40.899Z,0
2024-04-07T02:01:48.839Z,0
2024-04-07T02:02:57.845Z,0
2024-04-07T02:04:05.891Z,0
2024-04-07T02:05:14.895Z,0
2024-04-07T02:06:22.839Z,0
2024-04-07T02:07:31.844Z,0
2024-04-07T02:08:39.889Z,0
2024-04-07T02:09:48.895Z,0
2024-04-07T02:10:56.838Z,0
2024-04-07T02:12:05.845Z,0
2024-04-07T02:13:13.884Z,0
2024-04-07T02:14:22.892Z,0
2024-04-07T02:15:30.831Z,0
2024-04-07T02:16:39.836Z,0
2024-04-07T02:17:47.885Z,0
2024-04-07T02:18:56.891Z,0
2024-04-07T02:20:04.834Z,0
2024-04-07T02:21:13.840Z,0
2024-04-07T02:22:21.884Z,0
2024-04-07T02:23:30.891Z,0
2024-04-07T02:24:38.831Z,0
2024-04-07T02:25:47.836Z,0
2024-04-07T02:26:55.882Z,0
2024-04-07T02:28:04.889Z,0
2024-04-07T02:29:12.830Z,0
2024-04-07T02:30:21.837Z,0
2024-04-07T02:31:29.880Z,0
2024-04-07T02:32:38.886Z,0
2024-04-07T02:33:46.827Z,0
2024-04-07T02:34:55.834Z,0
2024-04-07T02:36:03.876Z,0
2024-04-07T02:37:12.880Z,0
2024-04-07T02:38:20.825Z,0
2024-04-07T02:39:29.830Z,0
2024-04-07T02:40:37.876Z,0
2024-04-07T02:41:46.882Z,0
2024-04-07T02:42:54.923Z,0
2024-04-07T02:44:03.827Z,0
2024-04-07T02:45:11.875Z,0
2024-04-07T02:46:20.880Z,0
2024-04-07T02:47:28.825Z,0
2024-04-07T02:48:37.832Z,0
2024-04-07T02:49:45.874Z,0
2024-04-07T02:50:54.880Z,0
2024-04-07T02:52:02.924Z,0
2024-04-07T02:53:11.831Z,0
2024-04-07T02:54:19.874Z,0
2024-04-07T02:55:28.880Z,0
2024-04-07T02:56:36.921Z,0
2024-04-07T02:57:45.826Z,0
2024-04-07T02:58:53.868Z,0
2024-04-07T03:00:02.875Z,0
2024-04-07T03:01:10.918Z,0
2024-04-07T03:02:19.922Z,0
2024-04-07T03:03:27.869Z,0
2024-04-07T03:04:36.874Z,0
2024-04-07T03:05:44.922Z,0
2024-04-07T03:06:53.828Z,0
2024-04-07T03:08:01.868Z,0
2024-04-07T03:09:10.875Z,0
2024-04-07T03:10:18.916Z,0
2024-04-07T03:11:27.921Z,0
2024-04-07T03:12:35.865Z,0
2024-04-07T03:13:44.872Z,0
2024-04-07T03:14:52.914Z,0
2024-04-07T03:16:01.919Z,0
2024-04-07T03:17:09.861Z,0
2024-04-07T03:18:18.866Z,0
2024-04-07T03:19:26.912Z,0
2024-04-07T03:20:35.919Z,0
2024-04-07T03:21:43.861Z,0
2024-04-07T03:22:52.866Z,0
2024-04-07T03:24:00.912Z,0
2024-04-07T03:25:09.917Z,0
2024-04-07T03:26:17.861Z,0
2024-04-07T03:27:26.866Z,0
2024-04-07T03:28:34.911Z,0
2024-04-07T03:29:43.919Z,0
2024-04-07T03:30:51.860Z,0
2024-04-07T03:32:00.866Z,0
2024-04-07T03:33:08.911Z,0
2024-04-07T03:34:17.917Z,0
2024-04-07T03:35:25.866Z,0
2024-04-07T03:36:34.871Z,0
2024-04-07T03:37:42.915Z,0
2024-04-07T03:38:51.919Z,0
2024-04-07T03:39:59.863Z,0
2024-04-07T03:41:08.867Z,0
2024-04-07T03:42:16.914Z,0
2024-04-07T03:43:25.919Z,0
2024-04-07T03:44:33.862Z,0
2024-04-07T03:45:42.868Z,0
2024-04-07T03:46:50.910Z,0
2024-04-07T03:47:59.915Z,0
2024-04-07T03:49:07.859Z,0
2024-04-07T03:50:16.864Z,0
2024-04-07T03:51:24.908Z,0
2024-04-07T03:52:33.914Z,0
2024-04-07T03:53:41.858Z,0
2024-04-07T03:54:50.863Z,0
2024-04-07T03:55:58.907Z,0
2024-04-07T03:57:07.912Z,0
2024-04-07T03:58:15.855Z,0
2024-04-07T03:59:24.860Z,0
2024-04-07T04:00:32.904Z,0
2024-04-07T04:01:41.911Z,0
2024-04-07T04:02:49.855Z,0
2024-04-07T04:03:58.861Z,0
2024-04-07T04:05:06.905Z,0
2024-04-07T04:06:15.913Z,0
2024-04-07T04:07:23.853Z,0
2024-04-07T04:08:32.859Z,0
2024-04-07T04:09:40.898Z,0
2024-04-07T04:10:49.906Z,0
2024-04-07T04:11:57.849Z,0
2024-04-07T04:13:06.854Z,0
2024-04-07T04:14:14.897Z,0
2024-04-07T04:15:23.904Z,0
2024-04-07T04:16:31.845Z,0
2024-04-07T04:17:40.852Z,0
2024-04-07T04:18:48.896Z,0
2024-04-07T04:19:57.900Z,0
2024-04-07T04:21:05.845Z,0
2024-04-07T04:22:14.855Z,0
2024-04-07T04:23:22.907Z,0
2024-04-07T04:24:31.923Z,0
2024-04-07T04:25:39.874Z,0
2024-04-07T04:26:48.889Z,0
2024-04-07T04:27:56.841Z,0
2024-04-07T04:29:05.856Z,0
2024-04-07T04:30:12.858Z,1
2024-04-07T04:31:21.803Z,1
2024-04-07T04:32:29.844Z,1
2024-04-07T04:33:38.787Z,1
2024-04-07T04:34:46.826Z,2
2024-04-07T04:35:54.866Z,2
2024-04-07T04:37:03.809Z,2
2024-04-07T04:38:11.848Z,2
2024-04-07T04:39:20.793Z,2
2024-04-07T04:40:28.833Z,2
2024-04-07T04:41:37.776Z,3
2024-04-07T04:42:45.816Z,5
2024-04-07T04:43:53.856Z,3
2024-04-07T04:45:02.801Z,5
2024-04-07T04:46:10.840Z,4
2024-04-07T04:47:19.784Z,3
2024-04-07T04:48:27.824Z,8
2024-04-07T04:49:35.865Z,6
2024-04-07T04:50:44.809Z,5
2024-04-07T04:51:52.850Z,8
2024-04-07T04:53:01.792Z,10
2024-04-07T04:54:09.831Z,9
2024-04-07T04:55:18.777Z,10
2024-04-07T04:56:26.817Z,8
2024-04-07T04:57:34.856Z,12
2024-04-07T04:58:43.804Z,13
2024-04-07T04:59:51.845Z,12
2024-04-07T05:01:00.793Z,11
2024-04-07T05:02:08.833Z,13
2024-04-07T05:03:17.779Z,15
2024-04-07T05:04:25.818Z,14
2024-04-07T05:05:33.860Z,16
2024-04-07T05:06:42.804Z,15
2024-04-07T05:07:50.842Z,21
2024-04-07T05:08:59.790Z,18
2024-04-07T05:10:07.830Z,18
2024-04-07T05:11:16.776Z,17
2024-04-07T05:12:24.816Z,16
2024-04-07T05:13:32.857Z,12
2024-04-07T05:14:41.800Z,14
2024-04-07T05:15:49.841Z,17
2024-04-07T05:16:58.787Z,17
2024-04-07T05:18:06.826Z,19
2024-04-07T05:19:14.868Z,19
2024-04-07T05:20:23.812Z,18
2024-04-07T05:21:31.851Z,22
2024-04-07T05:22:40.796Z,25
2024-04-07T05:23:48.836Z,26
2024-04-07T05:24:57.782Z,27
2024-04-07T05:26:05.824Z,27
2024-04-07T05:27:13.864Z,30
2024-04-07T05:28:22.809Z,21
2024-04-07T05:29:30.850Z,26
2024-04-07T05:30:39.794Z,30
2024-04-07T05:31:47.836Z,32
2024-04-07T05:32:56.779Z,32
2024-04-07T05:34:04.821Z,32
2024-04-07T05:35:12.862Z,31
2024-04-07T05:36:21.806Z,34
2024-04-07T05:37:29.845Z,35
2024-04-07T05:38:38.794Z,36
2024-04-07T05:39:46.834Z,37
2024-04-07T05:40:55.780Z,36
2024-04-07T05:42:03.821Z,37
2024-04-07T05:43:11.863Z,37
2024-04-07T05:44:20.808Z,41
2024-04-07T05:45:28.847Z,44
2024-04-07T05:46:37.796Z,48
2024-04-07T05:47:45.836Z,46
2024-04-07T05:48:54.779Z,50
2024-04-07T05:50:02.820Z,51
2024-04-07T05:51:10.859Z,52
2024-04-07T05:52:19.807Z,51
2024-04-07T05:53:27.846Z,50
2024-04-07T05:54:36.791Z,51
2024-04-07T05:55:44.832Z,54
2024-04-07T05:56:53.777Z,49
2024-04-07T05:58:01.817Z,56
2024-04-07T05:59:09.858Z,56
2024-04-07T06:00:18.801Z,57
2024-04-07T06:01:26.843Z,58
2024-04-07T06:02:35.790Z,62
2024-04-07T06:03:43.830Z,63
2024-04-07T06:04:52.777Z,66
2024-04-07T06:06:00.817Z,66
2024-04-07T06:07:08.856Z,66
2024-04-07T06:08:17.800Z,66
2024-04-07T06:09:25.841Z,66
2024-04-07T06:10:34.789Z,66
2024-04-07T06:11:42.828Z,67
2024-04-07T06:12:50.867Z,65
2024-04-07T06:13:59.809Z,68
2024-04-07T06:15:07.849Z,66
2024-04-07T06:16:16.794Z,73
2024-04-07T06:17:24.833Z,75
2024-04-07T06:18:33.778Z,75
2024-04-07T06:19:41.818Z,77
2024-04-07T06:20:49.858Z,78
2024-04-07T06:21:58.803Z,77
2024-04-07T06:23:06.842Z,77
2024-04-07T06:24:15.785Z,79
2024-04-07T06:25:23.826Z,79
2024-04-07T06:26:31.866Z,79
2024-04-07T06:27:40.815Z,81
2024-04-07T06:28:48.856Z,81
2024-04-07T06:29:57.799Z,82
2024-04-07T06:31:05.840Z,88
2024-04-07T06:32:14.785Z,94
2024-04-07T06:33:22.826Z,91
2024-04-07T06:34:30.866Z,97
2024-04-07T06:35:39.810Z,104
2024-04-07T06:36:47.851Z,101
2024-04-07T06:37:56.797Z,103
2024-04-07T06:39:04.837Z,105
2024-04-07T06:40:13.782Z,101
2024-04-07T06:41:21.823Z,101
2024-04-07T06:42:29.865Z,99
2024-04-07T06:43:38.808Z,99
2024-04-07T06:44:46.850Z,101
2024-04-07T06:45:55.798Z,102
2024-04-07T06:47:03.840Z,107
2024-04-07T06:48:12.785Z,110
2024-04-07T06:49:20.826Z,111
2024-04-07T06:50:28.867Z,112
2024-04-07T06:51:37.814Z,121
2024-04-07T06:52:45.856Z,125
2024-04-07T06:53:54.804Z,126
2024-04-07T06:55:02.846Z,128
2024-04-07T06:56:11.794Z,129
2024-04-07T06:57:19.835Z,128
2024-04-07T06:58:28.779Z,132
2024-04-07T06:59:36.819Z,126
2024-04-07T07:00:44.861Z,128
2024-04-07T07:01:53.809Z,128
2024-04-07T07:03:01.851Z,126
2024-04-07T07:04:10.794Z,132
2024-04-07T07:05:18.834Z,131
2024-04-07T07:06:27.782Z,133
2024-04-07T07:07:35.824Z,134
2024-04-07T07:08:43.866Z,133
2024-04-07T07:09:52.809Z,132
2024-04-07T07:11:00.851Z,128
2024-04-07T07:12:09.798Z,136
2024-04-07T07:13:17.839Z,136
2024-04-07T07:14:26.783Z,136
2024-04-07T07:15:34.825Z,134
2024-04-07T07:16:42.867Z,134
2024-04-07T07:17:51.812Z,139
2024-04-07T07:18:59.853Z,136
2024-04-07T07:20:08.798Z,137
2024-04-07T07:21:16.840Z,141
2024-04-07T07:22:25.787Z,144
2024-04-07T07:23:33.829Z,151
2024-04-07T07:24:41.870Z,149
2024-04-07T07:25:50.816Z,156
2024-04-07T07:26:58.856Z,157
2024-04-07T07:28:07.800Z,160
2024-04-07T07:29:15.841Z,165
2024-04-07T07:30:24.788Z,174
2024-04-07T07:31:32.829Z,177
2024-04-07T07:32:41.774Z,183
2024-04-07T07:33:49.816Z,180
2024-04-07T07:34:57.858Z,183
2024-04-07T07:36:06.803Z,181
2024-04-07T07:37:14.844Z,178
2024-04-07T07:38:23.790Z,170
2024-04-07T07:39:31.831Z,165
2024-04-07T07:40:40.778Z,167
2024-04-07T07:41:48.819Z,158
2024-04-07T07:42:56.859Z,153
2024-04-07T07:44:05.802Z,148
2024-04-07T07:45:13.845Z,143
2024-04-07T07:46:22.789Z,143
2024-04-07T07:47:30.829Z,141
2024-04-07T07:48:38.870Z,143
2024-04-07T07:49:47.813Z,143
2024-04-07T07:50:55.854Z,143
2024-04-07T07:52:04.799Z,143
2024-04-07T07:53:12.840Z,142
2024-04-07T07:54:21.788Z,144
2024-04-07T07:55:29.829Z,150
2024-04-07T07:56:37.871Z,158
2024-04-07T07:57:46.815Z,157
2024-04-07T07:58:54.858Z,157
2024-04-07T08:00:03.803Z,155
2024-04-07T08:01:11.846Z,158
2024-04-07T08:02:20.788Z,160
2024-04-07T08:03:28.830Z,158
2024-04-07T08:04:37.776Z,160
2024-04-07T08:05:45.816Z,162
2024-04-07T08:06:53.857Z,166
2024-04-07T08:08:02.802Z,165
2024-04-07T08:09:10.844Z,163
2024-04-07T08:10:19.787Z,163
2024-04-07T08:11:27.829Z,163
2024-04-07T08:12:35.870Z,162
2024-04-07T08:13:44.819Z,157
2024-04-07T08:14:52.861Z,159
2024-04-07T08:16:01.806Z,159
2024-04-07T08:17:09.848Z,157
2024-04-07T08:18:18.790Z,164
2024-04-07T08:19:26.832Z,167
2024-04-07T08:20:35.774Z,165
2024-04-07T08:21:43.816Z,169
2024-04-07T08:22:51.858Z,172
2024-04-07T08:24:00.801Z,170
2024-04-07T08:25:08.843Z,172
2024-04-07T08:26:17.787Z,174
2024-04-07T08:27:25.829Z,180
2024-04-07T08:28:33.770Z,183
2024-04-07T08:29:41.812Z,181
2024-04-07T08:30:49.854Z,185
2024-04-07T08:31:58.800Z,188
2024-04-07T08:33:06.842Z,188
2024-04-07T08:34:15.789Z,185
2024-04-07T08:35:23.830Z,189
2024-04-07T08:36:32.774Z,186
2024-04-07T08:37:40.816Z,187
2024-04-07T08:38:48.858Z,190
2024-04-07T08:39:57.807Z,187
2024-04-07T08:41:05.850Z,187
2024-04-07T08:42:14.797Z,190
2024-04-07T08:43:22.838Z,193
2024-04-07T08:44:31.783Z,196
2024-04-07T08:45:39.827Z,198
2024-04-07T08:46:47.869Z,197
2024-04-07T08:47:56.819Z,194
2024-04-07T08:49:04.862Z,203
2024-04-07T08:50:13.808Z,210
2024-04-07T08:51:21.851Z,207
2024-04-07T08:52:30.797Z,205
2024-04-07T08:53:38.840Z,195
2024-04-07T08:54:47.785Z,195
2024-04-07T08:55:55.828Z,191
2024-04-07T08:57:04.773Z,186
2024-04-07T08:58:12.814Z,195
2024-04-07T08:59:20.855Z,199
2024-04-07T09:00:29.800Z,193
2024-04-07T09:01:37.841Z,204
2024-04-07T09:02:46.787Z,203
2024-04-07T09:03:54.830Z,197
2024-04-07T09:05:03.776Z,192
2024-04-07T09:06:11.818Z,176
2024-04-07T09:07:19.859Z,180
2024-04-07T09:08:28.805Z,195
2024-04-07T09:09:36.848Z,214
2024-04-07T09:10:45.792Z,235
2024-04-07T09:11:53.834Z,230
2024-04-07T09:13:02.782Z,219
2024-04-07T09:14:10.824Z,228
2024-04-07T09:15:18.866Z,235
2024-04-07T09:16:27.811Z,233
2024-04-07T09:17:35.852Z,232
2024-04-07T09:18:44.799Z,233
2024-04-07T09:19:52.841Z,231
2024-04-07T09:21:01.789Z,230
2024-04-07T09:22:09.831Z,230
2024-04-07T09:23:18.776Z,231
2024-04-07T09:24:26.816Z,229
2024-04-07T09:25:34.858Z,233
2024-04-07T09:26:43.804Z,240
2024-04-07T09:27:51.846Z,235
2024-04-07T09:29:00.796Z,222
2024-04-07T09:30:08.837Z,195
2024-04-07T09:31:17.782Z,175
2024-04-07T09:32:25.825Z,179
2024-04-07T09:33:33.866Z,180
2024-04-07T09:34:42.815Z,187
2024-04-07T09:35:50.858Z,191
2024-04-07T09:36:59.802Z,179
2024-04-07T09:38:07.844Z,176
2024-04-07T09:39:16.791Z,178
2024-04-07T09:40:24.834Z,187
2024-04-07T09:41:33.777Z,195
2024-04-07T09:42:41.818Z,210
2024-04-07T09:43:49.860Z,225
2024-04-07T09:44:58.807Z,218
2024-04-07T09:46:06.850Z,212
2024-04-07T09:47:15.797Z,201
2024-04-07T09:48:23.839Z,190
2024-04-07T09:49:32.787Z,186
2024-04-07T09:50:40.829Z,171
2024-04-07T09:51:48.870Z,161
2024-04-07T09:52:57.816Z,165
2024-04-07T09:54:05.856Z,164
2024-04-07T09:55:14.803Z,166
2024-04-07T09:56:22.843Z,169
2024-04-07T09:57:31.788Z,176
2024-04-07T09:58:39.832Z,180
2024-04-07T09:59:48.776Z,181
2024-04-07T10:00:56.818Z,181
2024-04-07T10:02:04.860Z,185
2024-04-07T10:03:13.801Z,190
2024-04-07T10:04:21.843Z,204
2024-04-07T10:05:30.788Z,220
2024-04-07T10:06:38.831Z,236
2024-04-07T10:07:47.776Z,229
2024-04-07T10:08:55.817Z,220
2024-04-07T10:10:03.858Z,215
2024-04-07T10:11:12.804Z,225
2024-04-07T10:12:20.847Z,224
2024-04-07T10:13:29.793Z,224
2024-04-07T10:14:37.835Z,221
2024-04-07T10:15:46.777Z,220
2024-04-07T10:16:54.819Z,218
2024-04-07T10:18:02.861Z,215
2024-04-07T10:19:11.808Z,190
2024-04-07T10:20:19.849Z,225
2024-04-07T10:21:28.796Z,240
2024-04-07T10:22:36.837Z,225
2024-04-07T10:23:45.784Z,209
2024-04-07T10:24:53.827Z,212
2024-04-07T10:26:01.869Z,228
2024-04-07T10:27:10.815Z,229
2024-04-07T10:28:18.858Z,213
2024-04-07T10:29:27.803Z,209
2024-04-07T10:30:35.844Z,209
2024-04-07T10:31:44.793Z,210
2024-04-07T10:32:52.835Z,214
2024-04-07T10:34:01.783Z,208
2024-04-07T10:35:09.823Z,204
2024-04-07T10:36:17.866Z,201
2024-04-07T10:37:26.816Z,205
2024-04-07T10:38:34.859Z,201
2024-04-07T10:39:43.807Z,197
2024-04-07T10:40:51.847Z,197
2024-04-07T10:42:00.794Z,192
2024-04-07T10:43:08.835Z,195
2024-04-07T10:44:17.783Z,190
2024-04-07T10:45:25.824Z,190
2024-04-07T10:46:33.866Z,187
2024-04-07T10:47:42.811Z,179
2024-04-07T10:48:50.853Z,177
2024-04-07T10:49:59.800Z,174
2024-04-07T10:51:07.840Z,172
2024-04-07T10:52:16.787Z,170
2024-04-07T10:53:24.829Z,161
2024-04-07T10:54:32.871Z,163
2024-04-07T10:55:41.816Z,165
2024-04-07T10:56:49.857Z,164
2024-04-07T10:57:58.802Z,167
2024-04-07T10:59:06.842Z,168
2024-04-07T11:00:15.785Z,169
2024-04-07T11:01:23.826Z,170
2024-04-07T11:02:31.867Z,163
2024-04-07T11:03:40.810Z,166
2024-04-07T11:04:48.852Z,165
2024-04-07T11:05:57.798Z,166
2024-04-07T11:07:05.839Z,168
2024-04-07T11:08:14.786Z,182
2024-04-07T11:09:22.829Z,180
2024-04-07T11:10:31.773Z,161
2024-04-07T11:11:39.816Z,171
2024-04-07T11:12:47.857Z,167
2024-04-07T11:13:56.803Z,169
2024-04-07T11:15:04.844Z,179
2024-04-07T11:16:13.790Z,183
2024-04-07T11:17:21.833Z,175
2024-04-07T11:18:30.784Z,178
2024-04-07T11:19:38.827Z,174
2024-04-07T11:20:46.869Z,185
2024-04-07T11:21:55.818Z,185
2024-04-07T11:23:03.859Z,187
2024-04-07T11:24:12.809Z,190
2024-04-07T11:25:20.850Z,188
2024-04-07T11:26:29.798Z,189
2024-04-07T11:27:37.841Z,191
2024-04-07T11:28:46.785Z,200
2024-04-07T11:29:54.828Z,194
2024-04-07T11:31:02.871Z,190
2024-04-07T11:32:11.820Z,183
2024-04-07T11:33:19.860Z,191
2024-04-07T11:34:28.805Z,180
2024-04-07T11:35:36.845Z,183
2024-04-07T11:36:45.791Z,192
2024-04-07T11:37:53.834Z,173
2024-04-07T11:39:02.779Z,167
2024-04-07T11:40:10.819Z,174
2024-04-07T11:41:18.860Z,177
2024-04-07T11:42:27.807Z,176
2024-04-07T11:43:35.848Z,174
2024-04-07T11:44:44.796Z,178
2024-04-07T11:45:52.837Z,187
2024-04-07T11:47:01.784Z,172
2024-04-07T11:48:09.828Z,185
2024-04-07T11:49:17.869Z,180
2024-04-07T11:50:26.818Z,184
2024-04-07T11:51:34.860Z,179
2024-04-07T11:52:43.806Z,185
2024-04-07T11:53:51.849Z,204
2024-04-07T11:55:00.796Z,206
2024-04-07T11:56:08.837Z,184
2024-04-07T11:57:17.785Z,179
2024-04-07T11:58:25.825Z,172
2024-04-07T11:59:33.868Z,181
2024-04-07T12:00:42.812Z,198
2024-04-07T12:01:50.855Z,203
2024-04-07T12:02:59.800Z,192
2024-04-07T12:04:07.843Z,176
2024-04-07T12:05:16.790Z,180
2024-04-07T12:06:24.833Z,193
2024-04-07T12:07:33.779Z,166
2024-04-07T12:08:41.820Z,167
2024-04-07T12:09:49.861Z,166
2024-04-07T12:10:58.806Z,174
2024-04-07T12:12:06.849Z,189
2024-04-07T12:13:15.794Z,187
2024-04-07T12:14:23.837Z,187
2024-04-07T12:15:32.785Z,191
2024-04-07T12:16:40.829Z,191
2024-04-07T12:17:48.870Z,191
2024-04-07T12:18:57.814Z,190
2024-04-07T12:20:05.855Z,185
2024-04-07T12:21:14.799Z,186
2024-04-07T12:22:22.840Z,184
2024-04-07T12:23:31.786Z,182
2024-04-07T12:24:39.829Z,185
2024-04-07T12:25:48.775Z,187
2024-04-07T12:26:56.815Z,191
2024-04-07T12:28:04.858Z,187
2024-04-07T12:29:13.806Z,189
2024-04-07T12:30:21.849Z,181
2024-04-07T12:31:30.795Z,184
2024-04-07T12:32:38.837Z,184
2024-04-07T12:33:47.782Z,179
2024-04-07T12:34:55.824Z,182
2024-04-07T12:36:03.865Z,187
2024-04-07T12:37:12.812Z,182
2024-04-07T12:38:20.854Z,185
2024-04-07T12:39:29.800Z,183
2024-04-07T12:40:37.842Z,184
2024-04-07T12:41:46.787Z,187
2024-04-07T12:42:54.829Z,182
2024-04-07T12:44:02.870Z,180
2024-04-07T12:45:11.815Z,187
2024-04-07T12:46:19.857Z,177
2024-04-07T12:47:28.800Z,174
2024-04-07T12:48:36.842Z,178
2024-04-07T12:49:45.788Z,172
2024-04-07T12:50:53.830Z,178
2024-04-07T12:52:02.776Z,179
2024-04-07T12:53:10.817Z,176
2024-04-07T12:54:18.859Z,181
2024-04-07T12:55:27.805Z,178
2024-04-07T12:56:35.847Z,175
2024-04-07T12:57:44.792Z,181
2024-04-07T12:58:52.834Z,172
2024-04-07T13:00:01.780Z,176
2024-04-07T13:01:09.822Z,177
2024-04-07T13:02:17.864Z,178
2024-04-07T13:03:26.811Z,178
2024-04-07T13:04:34.853Z,175
2024-04-07T13:05:43.797Z,179
2024-04-07T13:06:51.838Z,180
2024-04-07T13:08:00.786Z,179
2024-04-07T13:09:08.828Z,178
2024-04-07T13:10:16.871Z,170
2024-04-07T13:11:25.816Z,179
2024-04-07T13:12:33.858Z,181
2024-04-07T13:13:42.806Z,180
2024-04-07T13:14:50.848Z,179
2024-04-07T13:15:59.793Z,175
2024-04-07T13:17:07.835Z,179
2024-04-07T13:18:16.782Z,177
2024-04-07T13:19:24.822Z,178
2024-04-07T13:20:32.863Z,183
2024-04-07T13:21:41.809Z,187
2024-04-07T13:22:49.852Z,178
2024-04-07T13:23:58.798Z,178
2024-04-07T13:25:06.840Z,186
2024-04-07T13:26:15.785Z,168
2024-04-07T13:27:23.827Z,180
2024-04-07T13:28:31.871Z,177
2024-04-07T13:29:40.816Z,161
2024-04-07T13:30:48.857Z,169
2024-04-07T13:31:57.806Z,209
2024-04-07T13:33:05.848Z,200
2024-04-07T13:34:14.795Z,192
2024-04-07T13:35:22.837Z,188
2024-04-07T13:36:31.782Z,186
2024-04-07T13:37:39.824Z,196
2024-04-07T13:38:47.864Z,192
2024-04-07T13:39:56.812Z,189
2024-04-07T13:41:04.853Z,194
2024-04-07T13:42:13.798Z,186
2024-04-07T13:43:21.840Z,193
2024-04-07T13:44:30.784Z,189
2024-04-07T13:45:38.827Z,182
2024-04-07T13:46:46.869Z,186
2024-04-07T13:47:55.816Z,181
2024-04-07T13:49:03.857Z,173
2024-04-07T13:50:12.802Z,156
2024-04-07T13:51:20.843Z,171
2024-04-07T13:52:29.787Z,155
2024-04-07T13:53:37.829Z,162
2024-04-07T13:54:45.869Z,183
2024-04-07T13:55:54.814Z,171
2024-04-07T13:57:02.856Z,177
2024-04-07T13:58:11.802Z,178
2024-04-07T13:59:19.843Z,185
2024-04-07T14:00:28.790Z,189
2024-04-07T14:01:36.832Z,189
2024-04-07T14:02:45.780Z,189
2024-04-07T14:03:53.822Z,187
2024-04-07T14:05:01.862Z,194
2024-04-07T14:06:10.809Z,182
2024-04-07T14:07:18.851Z,180
2024-04-07T14:08:27.797Z,179
2024-04-07T14:09:35.839Z,169
2024-04-07T14:10:44.782Z,160
2024-04-07T14:11:52.823Z,158
2024-04-07T14:13:00.864Z,152
2024-04-07T14:14:09.808Z,143
2024-04-07T14:15:17.850Z,161
2024-04-07T14:16:26.793Z,151
2024-04-07T14:17:34.835Z,164
2024-04-07T14:18:43.782Z,173
2024-04-07T14:19:51.824Z,168
2024-04-07T14:20:59.863Z,172
2024-04-07T14:22:08.806Z,174
2024-04-07T14:23:16.848Z,164
2024-04-07T14:24:25.793Z,177
2024-04-07T14:25:33.836Z,174
2024-04-07T14:26:42.781Z,174
2024-04-07T14:27:50.824Z,172
2024-04-07T14:28:58.863Z,169
2024-04-07T14:30:07.808Z,169
2024-04-07T14:31:15.848Z,166
2024-04-07T14:32:24.794Z,165
2024-04-07T14:33:32.836Z,172
2024-04-07T14:34:41.782Z,173
2024-04-07T14:35:49.823Z,172
2024-04-07T14:36:57.864Z,167
2024-04-07T14:38:06.810Z,161
2024-04-07T14:39:14.852Z,166
2024-04-07T14:40:23.801Z,164
2024-04-07T14:41:31.842Z,163
2024-04-07T14:42:40.788Z,161
2024-04-07T14:43:48.828Z,166
2024-04-07T14:44:56.869Z,162
2024-04-07T14:46:05.813Z,161
2024-04-07T14:47:13.855Z,159
2024-04-07T14:48:22.799Z,159
2024-04-07T14:49:30.839Z,159
2024-04-07T14:50:39.785Z,159
2024-04-07T14:51:47.825Z,164
2024-04-07T14:52:55.865Z,152
2024-04-07T14:54:04.812Z,150
2024-04-07T14:55:12.854Z,160
2024-04-07T14:56:21.799Z,160
2024-04-07T14:57:29.840Z,154
2024-04-07T14:58:38.785Z,153
2024-04-07T14:59:46.827Z,149
2024-04-07T15:00:54.869Z,148
2024-04-07T15:02:03.815Z,148
2024-04-07T15:03:11.857Z,143
2024-04-07T15:04:20.800Z,145
2024-04-07T15:05:28.842Z,149
2024-04-07T15:06:37.785Z,149
2024-04-07T15:07:45.825Z,150
2024-04-07T15:08:53.866Z,148
2024-04-07T15:10:02.813Z,147
2024-04-07T15:11:10.853Z,155
2024-04-07T15:12:19.800Z,154
2024-04-07T15:13:27.840Z,155
2024-04-07T15:14:36.786Z,155
2024-04-07T15:15:44.827Z,152
2024-04-07T15:16:52.869Z,154
2024-04-07T15:18:01.814Z,152
2024-04-07T15:19:09.855Z,151
2024-04-07T15:20:18.799Z,152
2024-04-07T15:21:26.842Z,146
2024-04-07T15:22:35.786Z,145
2024-04-07T15:23:43.826Z,147
2024-04-07T15:24:51.868Z,143
2024-04-07T15:26:00.814Z,144
2024-04-07T15:27:08.855Z,140
2024-04-07T15:28:17.803Z,139
2024-04-07T15:29:25.843Z,140
2024-04-07T15:30:34.787Z,140
2024-04-07T15:31:42.827Z,135
2024-04-07T15:32:50.868Z,134
2024-04-07T15:33:59.814Z,137
2024-04-07T15:35:07.856Z,139
2024-04-07T15:36:16.800Z,138
2024-04-07T15:37:24.841Z,134
2024-04-07T15:38:33.786Z,135
2024-04-07T15:39:41.828Z,133
2024-04-07T15:40:49.869Z,127
2024-04-07T15:41:58.815Z,132
2024-04-07T15:43:06.855Z,127
2024-04-07T15:44:15.799Z,127
2024-04-07T15:45:23.841Z,125
2024-04-07T15:46:32.789Z,132
2024-04-07T15:47:40.830Z,132
2024-04-07T15:48:49.777Z,129
2024-04-07T15:49:57.819Z,128
2024-04-07T15:51:05.860Z,124
2024-04-07T15:52:14.808Z,124
2024-04-07T15:53:22.851Z,122
2024-04-07T15:54:31.797Z,120
2024-04-07T15:55:39.838Z,119
2024-04-07T15:56:48.784Z,115
2024-04-07T15:57:56.826Z,115
2024-04-07T15:59:04.867Z,112
2024-04-07T16:00:13.811Z,113
2024-04-07T16:01:21.852Z,112
2024-04-07T16:02:30.797Z,110
2024-04-07T16:03:38.839Z,108
2024-04-07T16:04:47.783Z,107
2024-04-07T16:05:55.823Z,105